createdAt,value
2018-09-08T00:02:33.095Z,20.3
2018-09-08T00:19:20.072Z,20.3
2018-09-08T00:36:07.080Z,20.3
2018-09-08T00:52:54.049Z,20.3
2018-09-08T01:09:41.044Z,20.0
2018-09-08T01:26:28.115Z,20.0
2018-09-08T01:43:15.023Z,20.0
2018-09-08T02:00:01.961Z,20.0
2018-09-08T02:16:48.908Z,20.0
2018-09-08T02:33:35.842Z,20.0
2018-09-08T02:50:22.601Z,20.0
2018-09-08T03:07:09.423Z,20.0
2018-09-08T03:23:56.307Z,20.0
2018-09-08T03:40:43.113Z,19.7
2018-09-08T03:57:29.766Z,19.7
2018-09-08T04:14:16.323Z,19.7
2018-09-08T04:31:03.105Z,19.7
2018-09-08T04:47:49.645Z,19.7
2018-09-08T05:04:35.980Z,19.7
2018-09-08T05:21:22.629Z,19.7
2018-09-08T05:38:09.154Z,19.7
2018-09-08T05:54:56.155Z,19.7
2018-09-08T06:11:42.259Z,19.7
2018-09-08T06:28:28.900Z,20.0
2018-09-08T06:45:16.038Z,20.0
2018-09-08T07:02:03.199Z,20.0
2018-09-08T07:18:50.278Z,20.0
2018-09-08T07:35:37.712Z,20.3
2018-09-08T07:52:24.992Z,20.3
2018-09-08T08:09:12.131Z,20.3
2018-09-08T08:25:59.527Z,20.6
2018-09-08T08:42:47.137Z,20.6
2018-09-08T08:59:34.795Z,20.6
2018-09-08T09:16:22.493Z,20.6
2018-09-08T09:33:10.350Z,21.0
2018-09-08T09:49:58.168Z,21.0
2018-09-08T10:06:46.190Z,21.0
2018-09-08T10:23:34.404Z,21.0
2018-09-08T10:40:22.477Z,21.0
2018-09-08T10:57:10.706Z,21.0
2018-09-08T11:13:58.749Z,21.0
2018-09-08T11:30:47.154Z,21.3
2018-09-08T11:47:35.937Z,21.3
2018-09-08T12:04:24.197Z,21.3
2018-09-08T12:21:12.852Z,21.6
2018-09-08T12:38:01.606Z,21.6
2018-09-08T12:54:51.019Z,21.9
2018-09-08T13:11:39.602Z,21.6
2018-09-08T13:28:28.499Z,21.9
2018-09-08T13:45:17.388Z,21.6
2018-09-08T14:02:06.279Z,21.6
2018-09-08T14:18:55.540Z,21.6
2018-09-08T14:35:44.891Z,21.6
2018-09-08T14:52:32.928Z,21.6
2018-09-08T15:09:21.542Z,21.6
2018-09-08T15:26:10.429Z,21.6
2018-09-08T15:42:59.140Z,21.3
2018-09-08T15:59:47.843Z,21.3
2018-09-08T16:16:36.579Z,21.3
2018-09-08T16:33:26.211Z,21.3
2018-09-08T16:50:13.752Z,21.0
2018-09-08T17:07:04.160Z,21.0
2018-09-08T17:23:50.757Z,21.0
2018-09-08T17:40:39.156Z,21.0
2018-09-08T17:57:27.775Z,21.0
2018-09-08T18:14:16.185Z,21.0
2018-09-08T18:31:05.291Z,21.0
2018-09-08T18:47:53.737Z,21.0
2018-09-08T19:04:40.689Z,21.0
2018-09-08T19:21:28.321Z,20.6
2018-09-08T19:38:15.808Z,20.6
2018-09-08T19:55:04.152Z,20.6
2018-09-08T20:11:51.092Z,20.6
2018-09-08T20:28:38.663Z,20.6
2018-09-08T20:45:26.099Z,20.6
2018-09-08T21:02:13.550Z,20.6
2018-09-08T21:19:01.196Z,20.6
2018-09-08T21:35:48.228Z,20.6
2018-09-08T21:52:36.240Z,20.6
2018-09-08T22:09:22.873Z,20.6
2018-09-08T22:26:10.192Z,20.6
2018-09-08T22:42:57.475Z,20.6
2018-09-08T22:59:44.914Z,20.3
2018-09-08T23:16:32.092Z,20.3
2018-09-08T23:33:19.265Z,20.3
2018-09-08T23:50:06.357Z,20.3
